createdAt,value
2018-12-31T00:02:14.522Z,7.75
2018-12-31T00:04:45.809Z,6.33
2018-12-31T00:07:15.324Z,6.33
2018-12-31T00:09:44.732Z,6.60
2018-12-31T00:12:14.185Z,6.40
2018-12-31T00:14:43.712Z,6.30
2018-12-31T00:17:13.131Z,7.33
2018-12-31T00:19:42.613Z,6.92
2018-12-31T00:22:12.127Z,7.45
2018-12-31T00:24:41.984Z,7.22
2018-12-31T00:27:11.626Z,8.00
2018-12-31T00:29:41.089Z,7.77
2018-12-31T00:32:10.613Z,8.00
2018-12-31T00:34:40.083Z,7.55
2018-12-31T00:37:09.632Z,8.30
2018-12-31T00:39:39.095Z,8.10
2018-12-31T00:42:08.602Z,7.70
2018-12-31T00:44:38.099Z,8.20
2018-12-31T00:47:07.711Z,7.33
2018-12-31T00:49:37.143Z,6.62
2018-12-31T00:52:06.643Z,6.70
2018-12-31T00:54:36.075Z,6.55
2018-12-31T00:57:06.775Z,5.70
2018-12-31T00:59:36.214Z,5.22
2018-12-31T01:02:05.715Z,4.90
2018-12-31T01:04:35.129Z,4.80
2018-12-31T01:07:04.616Z,4.67
2018-12-31T01:09:34.065Z,5.28
2018-12-31T01:12:03.549Z,5.42
2018-12-31T01:14:33.619Z,5.70
2018-12-31T01:17:03.068Z,6.45
2018-12-31T01:19:32.521Z,6.35
2018-12-31T01:22:01.266Z,6.95
2018-12-31T01:24:30.948Z,7.17
2018-12-31T01:27:00.436Z,6.70
2018-12-31T01:29:29.952Z,7.58
2018-12-31T01:31:59.587Z,6.97
2018-12-31T01:34:29.089Z,6.45
2018-12-31T01:36:58.525Z,5.53
2018-12-31T01:39:28.303Z,6.67
2018-12-31T01:41:57.760Z,6.60
2018-12-31T01:44:27.328Z,5.72
2018-12-31T01:46:56.912Z,5.60
2018-12-31T01:49:26.353Z,5.90
2018-12-31T01:51:55.813Z,5.40
2018-12-31T01:54:25.525Z,6.03
2018-12-31T01:56:54.963Z,5.37
2018-12-31T01:59:24.468Z,6.15
2018-12-31T02:01:54.143Z,5.43
2018-12-31T02:04:23.661Z,5.45
2018-12-31T02:06:53.085Z,4.97
2018-12-31T02:09:23.143Z,4.40
2018-12-31T02:11:52.887Z,4.70
2018-12-31T02:14:22.342Z,5.00
2018-12-31T02:16:51.865Z,4.72
2018-12-31T02:19:21.593Z,6.17
2018-12-31T02:21:51.033Z,5.87
2018-12-31T02:24:20.473Z,5.42
2018-12-31T02:26:50.303Z,4.70
2018-12-31T02:29:19.949Z,4.65
2018-12-31T02:31:49.721Z,4.78
2018-12-31T02:34:19.198Z,5.25
2018-12-31T02:36:48.624Z,5.53
2018-12-31T02:39:18.355Z,5.30
2018-12-31T02:41:47.812Z,4.58
2018-12-31T02:44:17.277Z,5.17
2018-12-31T02:46:46.929Z,4.80
2018-12-31T02:49:16.385Z,5.50
2018-12-31T02:51:45.877Z,5.35
2018-12-31T02:54:15.405Z,5.58
2018-12-31T02:56:44.855Z,6.00
2018-12-31T02:59:14.392Z,5.72
2018-12-31T03:01:43.829Z,5.62
2018-12-31T03:04:13.630Z,5.47
2018-12-31T03:06:43.070Z,5.80
2018-12-31T03:09:12.508Z,6.37
2018-12-31T03:11:42.151Z,5.87
2018-12-31T03:14:11.596Z,6.33
2018-12-31T03:16:41.090Z,6.33
2018-12-31T03:19:10.653Z,6.25
2018-12-31T03:21:40.254Z,6.28
2018-12-31T03:24:09.730Z,5.70
2018-12-31T03:26:39.332Z,5.83
2018-12-31T03:29:08.820Z,5.83
2018-12-31T03:31:38.240Z,5.75
2018-12-31T03:34:07.949Z,5.30
2018-12-31T03:36:37.374Z,5.57
2018-12-31T03:39:07.800Z,5.20
2018-12-31T03:41:37.470Z,5.47
2018-12-31T03:44:06.885Z,4.23
2018-12-31T03:46:37.523Z,4.15
2018-12-31T03:49:07.205Z,4.20
2018-12-31T03:51:37.297Z,4.20
2018-12-31T03:54:06.707Z,3.92
2018-12-31T03:56:37.431Z,3.45
2018-12-31T03:59:07.049Z,3.65
2018-12-31T04:01:36.478Z,3.67
2018-12-31T04:04:06.240Z,2.87
2018-12-31T04:06:35.699Z,2.72
2018-12-31T04:09:06.772Z,3.27
2018-12-31T04:11:36.215Z,2.87
2018-12-31T04:14:05.647Z,2.85
2018-12-31T04:16:35.697Z,2.50
2018-12-31T04:19:05.125Z,2.63
2018-12-31T04:21:34.650Z,2.90
2018-12-31T04:24:04.158Z,3.20
2018-12-31T04:26:33.682Z,3.17
2018-12-31T04:29:03.172Z,3.10
2018-12-31T04:31:32.647Z,3.08
2018-12-31T04:34:02.136Z,3.02
2018-12-31T04:36:31.561Z,3.05
2018-12-31T04:39:01.093Z,2.60
2018-12-31T04:41:30.629Z,2.70
2018-12-31T04:44:00.132Z,2.77
2018-12-31T04:46:29.643Z,3.00
2018-12-31T04:48:59.358Z,2.47
2018-12-31T04:51:28.765Z,2.60
2018-12-31T04:53:58.255Z,2.53
2018-12-31T04:56:27.796Z,2.47
2018-12-31T04:58:57.307Z,3.90
2018-12-31T05:01:26.735Z,2.50
2018-12-31T05:03:56.228Z,2.50
2018-12-31T05:06:25.869Z,2.10
2018-12-31T05:08:55.293Z,1.98
2018-12-31T05:11:24.741Z,2.10
2018-12-31T05:13:54.573Z,1.95
2018-12-31T05:16:24.119Z,2.42
2018-12-31T05:18:53.889Z,2.17
2018-12-31T05:21:23.479Z,1.98
2018-12-31T05:23:53.430Z,1.82
2018-12-31T05:26:22.879Z,1.47
2018-12-31T05:28:52.422Z,1.62
2018-12-31T05:31:21.970Z,1.70
2018-12-31T05:33:51.430Z,1.30
2018-12-31T05:36:20.934Z,1.50
2018-12-31T05:38:50.586Z,1.40
2018-12-31T05:41:20.049Z,1.37
2018-12-31T05:43:49.904Z,1.35
2018-12-31T05:46:19.348Z,1.50
2018-12-31T05:48:48.905Z,1.60
2018-12-31T05:51:18.604Z,1.80
2018-12-31T05:53:48.150Z,2.00
2018-12-31T05:56:17.679Z,1.50
2018-12-31T05:58:47.246Z,1.60
2018-12-31T06:01:16.716Z,1.80
2018-12-31T06:03:46.742Z,1.40
2018-12-31T06:06:16.202Z,1.60
2018-12-31T06:08:45.560Z,1.60
2018-12-31T06:11:15.446Z,1.60
2018-12-31T06:13:44.865Z,1.40
2018-12-31T06:16:14.413Z,1.50
2018-12-31T06:18:43.907Z,1.77
2018-12-31T06:21:13.357Z,1.82
2018-12-31T06:23:42.853Z,1.85
2018-12-31T06:26:12.395Z,2.10
2018-12-31T06:28:41.871Z,1.70
2018-12-31T06:31:11.354Z,2.00
2018-12-31T06:33:40.868Z,1.90
2018-12-31T06:36:10.468Z,2.08
2018-12-31T06:38:39.877Z,2.25
2018-12-31T06:41:09.395Z,1.95
2018-12-31T06:43:39.084Z,1.77
2018-12-31T06:46:08.597Z,2.05
2018-12-31T06:48:38.003Z,2.20
2018-12-31T06:51:07.849Z,2.25
2018-12-31T06:53:37.269Z,2.47
2018-12-31T06:56:06.703Z,2.33
2018-12-31T06:58:36.461Z,2.40
2018-12-31T07:01:06.078Z,2.53
2018-12-31T07:03:35.542Z,2.45
2018-12-31T07:06:05.111Z,1.98
2018-12-31T07:08:34.513Z,2.08
2018-12-31T07:11:04.102Z,2.30
2018-12-31T07:13:33.519Z,2.47
2018-12-31T07:16:03.014Z,2.37
2018-12-31T07:18:32.589Z,2.60
2018-12-31T07:21:02.094Z,2.65
2018-12-31T07:23:31.787Z,2.12
2018-12-31T07:26:01.254Z,2.30
2018-12-31T07:28:32.601Z,2.80
2018-12-31T07:31:02.077Z,3.10
2018-12-31T07:33:31.501Z,2.92
2018-12-31T07:36:00.989Z,2.63
2018-12-31T07:38:30.445Z,2.75
2018-12-31T07:40:59.919Z,3.08
2018-12-31T07:43:29.662Z,2.17
2018-12-31T07:45:59.153Z,3.43
2018-12-31T07:48:28.555Z,3.02
2018-12-31T07:50:58.101Z,2.90
2018-12-31T07:53:27.517Z,2.60
2018-12-31T07:55:56.942Z,3.10
2018-12-31T07:58:26.521Z,4.08
2018-12-31T08:00:55.935Z,2.17
2018-12-31T08:03:25.411Z,3.90
2018-12-31T08:05:54.999Z,5.20
2018-12-31T08:08:24.427Z,4.62
2018-12-31T08:10:54.590Z,4.40
2018-12-31T08:13:24.175Z,6.67
2018-12-31T08:15:53.689Z,5.70
2018-12-31T08:18:23.113Z,5.25
2018-12-31T08:20:52.807Z,3.52
2018-12-31T08:23:23.434Z,5.30
2018-12-31T08:25:54.034Z,4.30
2018-12-31T08:28:24.232Z,4.13
2018-12-31T08:30:53.999Z,2.85
2018-12-31T08:33:23.847Z,3.40
2018-12-31T08:35:53.743Z,2.98
2018-12-31T08:38:23.230Z,3.55
2018-12-31T08:40:52.691Z,3.55
2018-12-31T08:43:22.163Z,3.70
2018-12-31T08:45:51.797Z,4.30
2018-12-31T08:48:21.321Z,3.17
2018-12-31T08:50:50.788Z,3.65
2018-12-31T08:53:20.276Z,3.30
2018-12-31T08:55:49.816Z,3.20
2018-12-31T08:58:19.348Z,3.75
2018-12-31T09:00:49.044Z,4.20
2018-12-31T09:03:18.563Z,2.77
2018-12-31T09:05:47.995Z,3.40
2018-12-31T09:08:17.466Z,4.22
2018-12-31T09:10:47.045Z,2.60
2018-12-31T09:13:16.502Z,3.10
2018-12-31T09:15:48.301Z,3.40
2018-12-31T09:18:20.606Z,3.30
2018-12-31T09:20:50.316Z,2.60
2018-12-31T09:23:19.806Z,2.83
2018-12-31T09:25:51.938Z,2.75
2018-12-31T09:28:21.639Z,3.22
2018-12-31T09:30:51.454Z,3.60
2018-12-31T09:33:22.406Z,3.20
2018-12-31T09:35:51.846Z,3.40
2018-12-31T09:38:21.438Z,3.10
2018-12-31T09:40:50.857Z,3.30
2018-12-31T09:43:20.858Z,3.87
2018-12-31T09:45:50.408Z,3.83
2018-12-31T09:48:19.921Z,3.60
2018-12-31T09:50:49.564Z,3.15
2018-12-31T09:53:21.692Z,4.28
2018-12-31T09:55:51.263Z,3.22
2018-12-31T09:58:20.725Z,2.62
2018-12-31T10:00:50.334Z,3.60
2018-12-31T10:03:19.866Z,3.27
2018-12-31T10:05:49.514Z,3.33
2018-12-31T10:08:19.023Z,3.22
2018-12-31T10:10:48.497Z,3.50
2018-12-31T10:13:18.001Z,3.80
2018-12-31T10:15:47.531Z,2.72
2018-12-31T10:18:16.982Z,2.90
2018-12-31T10:20:46.471Z,2.62
2018-12-31T10:23:15.943Z,2.80
2018-12-31T10:25:45.482Z,3.10
2018-12-31T10:28:14.955Z,2.70
2018-12-31T10:30:44.897Z,2.60
2018-12-31T10:33:14.376Z,2.55
2018-12-31T10:35:43.815Z,3.42
2018-12-31T10:38:13.695Z,2.67
2018-12-31T10:40:43.111Z,3.13
2018-12-31T10:43:12.616Z,3.20
2018-12-31T10:45:42.110Z,3.60
2018-12-31T10:48:11.593Z,3.80
2018-12-31T10:50:41.016Z,3.90
2018-12-31T10:53:10.495Z,3.20
2018-12-31T10:55:39.926Z,2.62
2018-12-31T10:58:09.495Z,4.30
2018-12-31T11:00:38.968Z,3.50
2018-12-31T11:03:08.379Z,3.20
2018-12-31T11:05:37.936Z,3.62
2018-12-31T11:08:07.445Z,3.35
2018-12-31T11:10:36.859Z,3.27
2018-12-31T11:13:06.723Z,3.45
2018-12-31T11:15:36.151Z,4.70
2018-12-31T11:18:05.589Z,4.62
2018-12-31T11:20:37.701Z,6.70
2018-12-31T11:23:07.211Z,10.27
2018-12-31T11:25:37.792Z,6.45
2018-12-31T11:28:07.472Z,6.95
2018-12-31T11:30:36.890Z,6.53
2018-12-31T11:33:06.702Z,6.15
2018-12-31T11:35:38.163Z,5.20
2018-12-31T11:38:07.629Z,4.42
2018-12-31T11:40:37.145Z,4.30
2018-12-31T11:43:06.642Z,3.70
2018-12-31T11:45:36.093Z,4.28
2018-12-31T11:48:06.081Z,5.62
2018-12-31T11:50:35.537Z,3.87
2018-12-31T11:53:05.011Z,3.42
2018-12-31T11:55:34.492Z,3.12
2018-12-31T11:58:03.985Z,3.62
2018-12-31T12:00:33.436Z,3.42
2018-12-31T12:03:02.862Z,2.47
2018-12-31T12:05:32.336Z,2.40
2018-12-31T12:08:01.810Z,2.98
2018-12-31T12:10:31.217Z,5.30
2018-12-31T12:13:00.794Z,2.50
2018-12-31T12:15:30.216Z,3.25
2018-12-31T12:18:00.080Z,9.23
2018-12-31T12:20:29.674Z,5.15
2018-12-31T12:22:59.286Z,4.25
2018-12-31T12:25:28.723Z,2.80
2018-12-31T12:27:58.227Z,3.30
2018-12-31T12:30:27.793Z,3.08
2018-12-31T12:32:57.365Z,3.02
2018-12-31T12:35:26.702Z,2.80
2018-12-31T12:37:56.261Z,5.53
2018-12-31T12:40:25.781Z,4.67
2018-12-31T12:42:55.226Z,4.50
2018-12-31T12:45:24.706Z,3.35
2018-12-31T12:47:54.197Z,4.42
2018-12-31T12:50:24.040Z,3.15
2018-12-31T12:52:53.513Z,2.47
2018-12-31T12:55:23.100Z,2.85
2018-12-31T12:57:52.535Z,4.53
2018-12-31T13:00:22.004Z,5.08
2018-12-31T13:02:51.640Z,5.37
2018-12-31T13:05:21.485Z,4.20
2018-12-31T13:07:50.931Z,3.87
2018-12-31T13:10:20.468Z,11.30
2018-12-31T13:12:49.907Z,14.45
2018-12-31T13:15:20.053Z,7.10
2018-12-31T13:17:49.793Z,5.83
2018-12-31T13:20:19.257Z,4.15
2018-12-31T13:22:48.688Z,3.30
2018-12-31T13:25:18.192Z,4.10
2018-12-31T13:27:47.683Z,2.90
2018-12-31T13:30:17.147Z,2.70
2018-12-31T13:32:46.697Z,3.00
2018-12-31T13:35:16.115Z,3.30
2018-12-31T13:37:45.653Z,3.95
2018-12-31T13:40:15.218Z,3.92
2018-12-31T13:42:44.633Z,4.62
2018-12-31T13:45:14.079Z,5.30
2018-12-31T13:47:43.511Z,4.60
2018-12-31T13:50:12.997Z,6.30
2018-12-31T13:52:42.491Z,10.65
2018-12-31T13:55:11.933Z,6.30
2018-12-31T13:57:41.507Z,7.45
2018-12-31T14:00:11.130Z,10.05
2018-12-31T14:02:40.597Z,9.98
2018-12-31T14:05:10.405Z,7.20
2018-12-31T14:07:39.815Z,17.25
2018-12-31T14:10:09.483Z,16.45
2018-12-31T14:12:39.021Z,22.58
2018-12-31T14:15:08.530Z,163.30
2018-12-31T14:17:37.972Z,308.43
2018-12-31T14:20:07.572Z,310.02
2018-12-31T14:22:40.105Z,234.23
2018-12-31T14:25:09.541Z,194.52
2018-12-31T14:27:39.043Z,96.00
2018-12-31T14:30:10.140Z,79.53
2018-12-31T14:32:39.666Z,47.23
2018-12-31T14:35:09.133Z,105.87
2018-12-31T14:37:38.653Z,38.15
2018-12-31T14:40:09.001Z,19.30
2018-12-31T14:42:38.420Z,19.73
2018-12-31T14:45:07.904Z,31.87
2018-12-31T14:47:37.455Z,25.30
2018-12-31T14:50:07.146Z,28.98
2018-12-31T14:53:10.540Z,31.70
2018-12-31T14:55:50.727Z,22.55
2018-12-31T14:58:20.189Z,20.30
2018-12-31T15:00:49.871Z,18.45
2018-12-31T15:03:19.333Z,27.55
2018-12-31T15:05:48.834Z,30.48
2018-12-31T15:08:18.459Z,21.65
2018-12-31T15:10:48.031Z,19.40
2018-12-31T15:13:17.488Z,16.93
2018-12-31T15:15:46.980Z,17.02
2018-12-31T15:18:16.434Z,22.10
2018-12-31T15:20:46.447Z,26.12
2018-12-31T15:23:15.898Z,28.97
2018-12-31T15:25:45.440Z,25.92
2018-12-31T15:28:15.049Z,23.00
2018-12-31T15:30:44.550Z,24.40
2018-12-31T15:33:14.408Z,28.32
2018-12-31T15:35:43.925Z,24.07
2018-12-31T15:38:13.429Z,17.25
2018-12-31T15:40:42.948Z,15.15
2018-12-31T15:43:12.715Z,17.17
2018-12-31T15:45:42.253Z,17.65
2018-12-31T15:48:11.733Z,20.08
2018-12-31T15:50:41.305Z,20.90
2018-12-31T15:53:11.059Z,21.27
2018-12-31T15:55:40.638Z,27.73
2018-12-31T15:58:10.355Z,28.50
2018-12-31T16:00:39.864Z,25.80
2018-12-31T16:03:09.852Z,33.23
2018-12-31T16:05:39.601Z,31.33
2018-12-31T16:08:09.233Z,29.87
2018-12-31T16:10:38.835Z,29.00
2018-12-31T16:13:08.287Z,26.95
2018-12-31T16:15:37.784Z,27.77
2018-12-31T16:18:07.277Z,21.70
2018-12-31T16:20:37.312Z,19.82
2018-12-31T16:23:06.831Z,52.67
2018-12-31T16:25:36.969Z,15.30
2018-12-31T16:28:07.414Z,14.70
2018-12-31T16:30:37.056Z,14.85
2018-12-31T16:33:07.010Z,15.70
2018-12-31T16:35:36.787Z,17.40
2018-12-31T16:38:06.318Z,18.73
2018-12-31T16:40:35.783Z,16.12
2018-12-31T16:43:05.576Z,15.43
2018-12-31T16:45:35.010Z,17.17
2018-12-31T16:48:04.542Z,18.32
2018-12-31T16:50:34.063Z,24.65
2018-12-31T16:53:03.568Z,20.62
2018-12-31T16:55:34.138Z,18.00
2018-12-31T16:58:03.742Z,17.90
2018-12-31T17:00:33.334Z,16.67
2018-12-31T17:03:02.803Z,15.70
2018-12-31T17:05:32.323Z,17.12
2018-12-31T17:08:02.283Z,15.40
2018-12-31T17:10:31.689Z,15.68
2018-12-31T17:13:01.110Z,17.07
2018-12-31T17:15:30.636Z,17.07
2018-12-31T17:18:00.063Z,16.37
2018-12-31T17:20:29.670Z,18.13
2018-12-31T17:22:59.203Z,19.37
2018-12-31T17:25:28.690Z,19.95
2018-12-31T17:27:58.280Z,18.37
2018-12-31T17:30:27.731Z,28.55
2018-12-31T17:32:57.392Z,21.82
2018-12-31T17:35:26.915Z,20.10
2018-12-31T17:37:56.345Z,20.95
2018-12-31T17:40:25.925Z,21.05
2018-12-31T17:42:55.428Z,21.30
2018-12-31T17:45:25.158Z,21.10
2018-12-31T17:47:54.701Z,26.87
2018-12-31T17:50:24.190Z,21.10
2018-12-31T17:52:53.626Z,21.02
2018-12-31T17:55:23.135Z,21.55
2018-12-31T17:57:52.930Z,20.50
2018-12-31T18:00:22.472Z,23.52
2018-12-31T18:02:51.909Z,31.00
2018-12-31T18:05:21.424Z,52.88
2018-12-31T18:07:50.954Z,35.90
2018-12-31T18:10:20.924Z,46.85
2018-12-31T18:12:50.356Z,86.20
2018-12-31T18:15:20.008Z,41.98
2018-12-31T18:17:49.420Z,37.53
2018-12-31T18:20:18.847Z,33.20
2018-12-31T18:22:48.486Z,30.90
2018-12-31T18:25:17.993Z,29.95
2018-12-31T18:27:47.445Z,31.40
2018-12-31T18:30:16.899Z,27.58
2018-12-31T18:32:46.429Z,27.20
2018-12-31T18:35:16.133Z,25.68
2018-12-31T18:37:45.645Z,25.27
2018-12-31T18:40:15.078Z,23.75
2018-12-31T18:42:44.493Z,24.65
2018-12-31T18:45:14.016Z,26.30
2018-12-31T18:47:43.446Z,27.30
2018-12-31T18:50:12.915Z,34.40
2018-12-31T18:52:42.359Z,43.48
2018-12-31T18:55:12.125Z,33.33
2018-12-31T18:57:41.546Z,30.55
2018-12-31T19:00:11.077Z,27.25
2018-12-31T19:02:40.598Z,31.17
2018-12-31T19:05:11.240Z,32.95
2018-12-31T19:07:40.752Z,36.33
2018-12-31T19:10:10.322Z,39.10
2018-12-31T19:12:39.674Z,38.70
2018-12-31T19:15:09.162Z,45.52
2018-12-31T19:17:38.668Z,42.67
2018-12-31T19:20:08.245Z,41.37
2018-12-31T19:22:37.980Z,41.75
2018-12-31T19:25:07.502Z,47.13
2018-12-31T19:27:37.096Z,43.38
2018-12-31T19:30:06.982Z,40.48
2018-12-31T19:32:36.479Z,41.48
2018-12-31T19:35:06.299Z,44.13
2018-12-31T19:37:35.838Z,40.05
2018-12-31T19:40:06.499Z,40.58
2018-12-31T19:42:36.173Z,41.20
2018-12-31T19:45:05.719Z,40.28
2018-12-31T19:47:35.444Z,41.37
2018-12-31T19:50:05.198Z,39.55
2018-12-31T19:52:34.660Z,36.33
2018-12-31T19:55:04.244Z,36.73
2018-12-31T19:57:33.794Z,32.45
2018-12-31T20:00:03.848Z,33.43
2018-12-31T20:02:33.453Z,34.95
2018-12-31T20:05:02.956Z,30.72
2018-12-31T20:07:32.468Z,27.02
2018-12-31T20:10:01.985Z,26.12
2018-12-31T20:12:31.807Z,26.85
2018-12-31T20:15:01.274Z,30.88
2018-12-31T20:17:30.753Z,26.05
2018-12-31T20:20:00.265Z,22.22
2018-12-31T20:22:31.468Z,21.30
2018-12-31T20:25:00.823Z,23.02
2018-12-31T20:27:30.357Z,19.75
2018-12-31T20:29:59.806Z,18.67
2018-12-31T20:32:29.397Z,18.32
2018-12-31T20:34:58.888Z,18.55
2018-12-31T20:37:28.367Z,20.57
2018-12-31T20:39:57.773Z,22.55
2018-12-31T20:42:27.525Z,21.77
2018-12-31T20:44:56.995Z,22.30
2018-12-31T20:47:26.408Z,23.27
2018-12-31T20:49:55.963Z,23.90
2018-12-31T20:52:25.374Z,24.65
2018-12-31T20:54:54.901Z,23.95
2018-12-31T20:57:24.407Z,25.60
2018-12-31T20:59:53.958Z,25.62
2018-12-31T21:02:23.901Z,25.27
2018-12-31T21:04:53.628Z,70.35
2018-12-31T21:07:23.056Z,24.47
2018-12-31T21:09:52.535Z,24.70
2018-12-31T21:12:22.410Z,25.25
2018-12-31T21:14:51.879Z,21.60
2018-12-31T21:17:21.484Z,22.50
2018-12-31T21:19:51.615Z,22.70
2018-12-31T21:22:21.196Z,21.90
2018-12-31T21:24:50.664Z,20.90
2018-12-31T21:27:20.110Z,20.80
2018-12-31T21:29:50.155Z,21.10
2018-12-31T21:32:19.696Z,16.93
2018-12-31T21:34:49.121Z,16.85
2018-12-31T21:37:18.592Z,17.07
2018-12-31T21:39:48.402Z,17.80
2018-12-31T21:42:18.521Z,22.65
2018-12-31T21:44:48.082Z,17.57
2018-12-31T21:47:17.564Z,19.32
2018-12-31T21:49:46.979Z,19.20
2018-12-31T21:52:16.448Z,16.73
2018-12-31T21:54:46.329Z,17.45
2018-12-31T21:57:15.754Z,17.77
2018-12-31T21:59:45.296Z,19.27
2018-12-31T22:02:14.723Z,19.15
2018-12-31T22:04:44.229Z,19.98
2018-12-31T22:07:14.168Z,19.30
2018-12-31T22:09:43.608Z,19.57
2018-12-31T22:12:13.225Z,20.20
2018-12-31T22:14:42.663Z,16.95
2018-12-31T22:17:12.160Z,13.98
2018-12-31T22:19:41.796Z,18.35
2018-12-31T22:22:11.218Z,17.17
2018-12-31T22:24:40.680Z,18.40
2018-12-31T22:27:10.288Z,16.87
2018-12-31T22:29:39.947Z,17.60
2018-12-31T22:32:10.453Z,16.42
2018-12-31T22:34:40.230Z,17.07
2018-12-31T22:37:09.690Z,17.27
2018-12-31T22:39:39.101Z,18.00
2018-12-31T22:42:08.557Z,19.02
2018-12-31T22:44:38.046Z,18.65
2018-12-31T22:47:07.569Z,16.55
2018-12-31T22:49:37.064Z,16.20
2018-12-31T22:52:06.553Z,19.95
2018-12-31T22:54:36.672Z,20.00
2018-12-31T22:57:06.426Z,19.02
2018-12-31T22:59:35.930Z,27.82
2018-12-31T23:02:05.523Z,23.80
2018-12-31T23:04:34.964Z,21.00
2018-12-31T23:07:07.014Z,26.10
2018-12-31T23:09:41.150Z,32.03
2018-12-31T23:12:08.187Z,44.30
2018-12-31T23:14:37.738Z,56.00
2018-12-31T23:17:09.725Z,61.00
2018-12-31T23:19:41.894Z,45.58
2018-12-31T23:22:10.607Z,51.25
2018-12-31T23:24:40.124Z,37.42
2018-12-31T23:27:10.719Z,80.83
2018-12-31T23:29:40.168Z,51.50
2018-12-31T23:32:09.604Z,55.70
2018-12-31T23:34:39.066Z,51.42
2018-12-31T23:37:08.559Z,59.38
2018-12-31T23:39:38.002Z,55.98
2018-12-31T23:42:07.562Z,33.87
2018-12-31T23:44:37.014Z,48.55
2018-12-31T23:47:06.484Z,26.27
2018-12-31T23:49:35.929Z,43.92
2018-12-31T23:52:05.385Z,47.60
2018-12-31T23:54:34.746Z,36.15
2018-12-31T23:57:04.187Z,42.75
2018-12-31T23:59:33.608Z,46.43
